sensor_id;sensor_type;location;lat;lon;timestamp;pressure;altitude;pressure_sealevel;temperature
11849;BMP180;5983;49.966;8.052;2022-07-23T00:00:11;100522.00;;;22.40
11849;BMP180;5983;49.966;8.052;2022-07-23T00:02:38;100528.00;;;22.50
11849;BMP180;5983;49.966;8.052;2022-07-23T00:05:06;100517.00;;;22.50
11849;BMP180;5983;49.966;8.052;2022-07-23T00:07:33;100529.00;;;22.50
11849;BMP180;5983;49.966;8.052;2022-07-23T00:10:00;100516.00;;;22.50
11849;BMP180;5983;49.966;8.052;2022-07-23T00:12:27;100525.00;;;22.50
11849;BMP180;5983;49.966;8.052;2022-07-23T00:14:55;100527.00;;;22.50
11849;BMP180;5983;49.966;8.052;2022-07-23T00:17:22;100520.00;;;22.50
11849;BMP180;5983;49.966;8.052;2022-07-23T00:19:49;100512.00;;;22.50
11849;BMP180;5983;49.966;8.052;2022-07-23T00:22:16;100506.00;;;22.50
11849;BMP180;5983;49.966;8.052;2022-07-23T00:24:43;100505.00;;;22.60
11849;BMP180;5983;49.966;8.052;2022-07-23T00:27:09;100497.00;;;22.60
11849;BMP180;5983;49.966;8.052;2022-07-23T00:29:36;100491.00;;;22.50
11849;BMP180;5983;49.966;8.052;2022-07-23T00:32:05;100499.00;;;22.40
11849;BMP180;5983;49.966;8.052;2022-07-23T00:34:32;100500.00;;;22.40
11849;BMP180;5983;49.966;8.052;2022-07-23T00:36:59;100496.00;;;22.30
11849;BMP180;5983;49.966;8.052;2022-07-23T00:39:26;100507.00;;;22.20
11849;BMP180;5983;49.966;8.052;2022-07-23T00:41:53;100524.00;;;22.20
11849;BMP180;5983;49.966;8.052;2022-07-23T00:44:23;100534.00;;;22.20
11849;BMP180;5983;49.966;8.052;2022-07-23T00:46:53;100536.00;;;22.20
11849;BMP180;5983;49.966;8.052;2022-07-23T00:49:23;100555.00;;;22.30
11849;BMP180;5983;49.966;8.052;2022-07-23T00:51:51;100569.00;;;22.30
11849;BMP180;5983;49.966;8.052;2022-07-23T00:54:19;100572.00;;;22.30
11849;BMP180;5983;49.966;8.052;2022-07-23T00:56:47;100564.00;;;22.30
11849;BMP180;5983;49.966;8.052;2022-07-23T00:59:14;100555.00;;;22.30
11849;BMP180;5983;49.966;8.052;2022-07-23T01:01:42;100564.00;;;22.30
11849;BMP180;5983;49.966;8.052;2022-07-23T01:04:09;100555.00;;;22.20
11849;BMP180;5983;49.966;8.052;2022-07-23T01:06:38;100547.00;;;22.10
11849;BMP180;5983;49.966;8.052;2022-07-23T01:09:06;100546.00;;;22.10
11849;BMP180;5983;49.966;8.052;2022-07-23T01:11:34;100529.00;;;22.00
11849;BMP180;5983;49.966;8.052;2022-07-23T01:14:10;100484.00;;;22.00
11849;BMP180;5983;49.966;8.052;2022-07-23T01:16:37;100487.00;;;22.00
11849;BMP180;5983;49.966;8.052;2022-07-23T01:19:04;100534.00;;;22.00
11849;BMP180;5983;49.966;8.052;2022-07-23T01:21:35;100529.00;;;21.90
11849;BMP180;5983;49.966;8.052;2022-07-23T01:24:04;100526.00;;;21.80
11849;BMP180;5983;49.966;8.052;2022-07-23T01:26:32;100534.00;;;21.70
11849;BMP180;5983;49.966;8.052;2022-07-23T01:28:59;100517.00;;;21.70
11849;BMP180;5983;49.966;8.052;2022-07-23T01:31:26;100502.00;;;21.60
11849;BMP180;5983;49.966;8.052;2022-07-23T01:33:53;100500.00;;;21.50
11849;BMP180;5983;49.966;8.052;2022-07-23T01:36:20;100502.00;;;21.50
11849;BMP180;5983;49.966;8.052;2022-07-23T01:38:47;100507.00;;;21.40
11849;BMP180;5983;49.966;8.052;2022-07-23T01:41:16;100514.00;;;21.40
11849;BMP180;5983;49.966;8.052;2022-07-23T01:43:43;100512.00;;;21.40
11849;BMP180;5983;49.966;8.052;2022-07-23T01:46:10;100507.00;;;21.30
11849;BMP180;5983;49.966;8.052;2022-07-23T01:48:38;100512.00;;;21.20
11849;BMP180;5983;49.966;8.052;2022-07-23T01:51:05;100512.00;;;21.20
11849;BMP180;5983;49.966;8.052;2022-07-23T01:53:32;100525.00;;;21.20
11849;BMP180;5983;49.966;8.052;2022-07-23T01:55:59;100523.00;;;21.20
11849;BMP180;5983;49.966;8.052;2022-07-23T01:58:27;100517.00;;;21.20
11849;BMP180;5983;49.966;8.052;2022-07-23T02:00:55;100508.00;;;21.20
11849;BMP180;5983;49.966;8.052;2022-07-23T02:03:22;100514.00;;;21.20
11849;BMP180;5983;49.966;8.052;2022-07-23T02:05:49;100518.00;;;21.20
11849;BMP180;5983;49.966;8.052;2022-07-23T02:08:17;100511.00;;;21.10
11849;BMP180;5983;49.966;8.052;2022-07-23T02:10:44;100531.00;;;21.20
11849;BMP180;5983;49.966;8.052;2022-07-23T02:13:12;100537.00;;;21.10
11849;BMP180;5983;49.966;8.052;2022-07-23T02:15:40;100544.00;;;21.10
11849;BMP180;5983;49.966;8.052;2022-07-23T02:18:07;100547.00;;;21.10
11849;BMP180;5983;49.966;8.052;2022-07-23T02:20:34;100531.00;;;21.10
11849;BMP180;5983;49.966;8.052;2022-07-23T02:23:05;100533.00;;;21.10
11849;BMP180;5983;49.966;8.052;2022-07-23T02:25:33;100533.00;;;21.10
11849;BMP180;5983;49.966;8.052;2022-07-23T02:28:00;100518.00;;;21.10
11849;BMP180;5983;49.966;8.052;2022-07-23T02:30:27;100518.00;;;21.10
11849;BMP180;5983;49.966;8.052;2022-07-23T02:32:56;100510.00;;;21.10
11849;BMP180;5983;49.966;8.052;2022-07-23T02:35:23;100518.00;;;21.10
11849;BMP180;5983;49.966;8.052;2022-07-23T02:37:50;100523.00;;;21.00
11849;BMP180;5983;49.966;8.052;2022-07-23T02:40:17;100507.00;;;21.00
11849;BMP180;5983;49.966;8.052;2022-07-23T02:42:45;100497.00;;;21.00
11849;BMP180;5983;49.966;8.052;2022-07-23T02:45:13;100496.00;;;21.00
11849;BMP180;5983;49.966;8.052;2022-07-23T02:47:40;100493.00;;;21.00
11849;BMP180;5983;49.966;8.052;2022-07-23T02:50:09;100498.00;;;21.00
11849;BMP180;5983;49.966;8.052;2022-07-23T02:52:38;100506.00;;;21.00
11849;BMP180;5983;49.966;8.052;2022-07-23T02:55:06;100501.00;;;21.00
11849;BMP180;5983;49.966;8.052;2022-07-23T02:57:33;100508.00;;;21.00
11849;BMP180;5983;49.966;8.052;2022-07-23T03:00:00;100498.00;;;21.00
11849;BMP180;5983;49.966;8.052;2022-07-23T03:02:27;100500.00;;;21.00
11849;BMP180;5983;49.966;8.052;2022-07-23T03:04:54;100499.00;;;21.00
11849;BMP180;5983;49.966;8.052;2022-07-23T03:07:23;100506.00;;;21.00
11849;BMP180;5983;49.966;8.052;2022-07-23T03:09:49;100508.00;;;21.00
11849;BMP180;5983;49.966;8.052;2022-07-23T03:12:16;100503.00;;;21.00
11849;BMP180;5983;49.966;8.052;2022-07-23T03:14:43;100503.00;;;21.00
11849;BMP180;5983;49.966;8.052;2022-07-23T03:17:10;100514.00;;;21.00
11849;BMP180;5983;49.966;8.052;2022-07-23T03:19:37;100530.00;;;21.00
11849;BMP180;5983;49.966;8.052;2022-07-23T03:22:05;100554.00;;;21.00
11849;BMP180;5983;49.966;8.052;2022-07-23T03:24:33;100560.00;;;21.00
11849;BMP180;5983;49.966;8.052;2022-07-23T03:27:17;100560.00;;;21.00
11849;BMP180;5983;49.966;8.052;2022-07-23T03:29:44;100559.00;;;21.00
11849;BMP180;5983;49.966;8.052;2022-07-23T03:32:11;100555.00;;;21.00
11849;BMP180;5983;49.966;8.052;2022-07-23T03:34:38;100569.00;;;21.00
11849;BMP180;5983;49.966;8.052;2022-07-23T03:37:05;100550.00;;;21.00
11849;BMP180;5983;49.966;8.052;2022-07-23T03:39:33;100541.00;;;21.00
11849;BMP180;5983;49.966;8.052;2022-07-23T03:42:00;100544.00;;;21.10
11849;BMP180;5983;49.966;8.052;2022-07-23T03:44:27;100540.00;;;21.10
11849;BMP180;5983;49.966;8.052;2022-07-23T03:46:54;100547.00;;;21.10
11849;BMP180;5983;49.966;8.052;2022-07-23T03:49:21;100546.00;;;21.10
11849;BMP180;5983;49.966;8.052;2022-07-23T03:51:48;100560.00;;;21.00
11849;BMP180;5983;49.966;8.052;2022-07-23T03:54:15;100565.00;;;21.00
11849;BMP180;5983;49.966;8.052;2022-07-23T03:56:43;100569.00;;;20.90
11849;BMP180;5983;49.966;8.052;2022-07-23T03:59:10;100562.00;;;20.90
11849;BMP180;5983;49.966;8.052;2022-07-23T04:01:37;100574.00;;;20.80
11849;BMP180;5983;49.966;8.052;2022-07-23T04:04:05;100571.00;;;20.70
11849;BMP180;5983;49.966;8.052;2022-07-23T04:06:34;100573.00;;;20.70
11849;BMP180;5983;49.966;8.052;2022-07-23T04:09:01;100572.00;;;20.70
11849;BMP180;5983;49.966;8.052;2022-07-23T04:11:28;100586.00;;;20.70
11849;BMP180;5983;49.966;8.052;2022-07-23T04:13:56;100598.00;;;20.60
11849;BMP180;5983;49.966;8.052;2022-07-23T04:16:23;100604.00;;;20.70
11849;BMP180;5983;49.966;8.052;2022-07-23T04:18:50;100606.00;;;20.70
11849;BMP180;5983;49.966;8.052;2022-07-23T04:21:17;100600.00;;;20.70
11849;BMP180;5983;49.966;8.052;2022-07-23T04:23:44;100602.00;;;20.70
11849;BMP180;5983;49.966;8.052;2022-07-23T04:26:12;100604.00;;;20.80
11849;BMP180;5983;49.966;8.052;2022-07-23T04:28:39;100609.00;;;20.80
11849;BMP180;5983;49.966;8.052;2022-07-23T04:31:07;100622.00;;;20.80
11849;BMP180;5983;49.966;8.052;2022-07-23T04:33:34;100622.00;;;20.80
11849;BMP180;5983;49.966;8.052;2022-07-23T04:36:02;100615.00;;;20.80
11849;BMP180;5983;49.966;8.052;2022-07-23T04:38:29;100620.00;;;20.80
11849;BMP180;5983;49.966;8.052;2022-07-23T04:40:55;100620.00;;;20.90
11849;BMP180;5983;49.966;8.052;2022-07-23T04:43:22;100626.00;;;20.90
11849;BMP180;5983;49.966;8.052;2022-07-23T04:45:49;100624.00;;;20.90
11849;BMP180;5983;49.966;8.052;2022-07-23T04:48:18;100622.00;;;20.90
11849;BMP180;5983;49.966;8.052;2022-07-23T04:50:45;100623.00;;;20.90
11849;BMP180;5983;49.966;8.052;2022-07-23T04:53:11;100623.00;;;20.90
11849;BMP180;5983;49.966;8.052;2022-07-23T04:55:38;100625.00;;;20.90
11849;BMP180;5983;49.966;8.052;2022-07-23T04:58:06;100630.00;;;20.90
11849;BMP180;5983;49.966;8.052;2022-07-23T05:00:33;100636.00;;;20.90
11849;BMP180;5983;49.966;8.052;2022-07-23T05:03:00;100627.00;;;20.90
11849;BMP180;5983;49.966;8.052;2022-07-23T05:05:28;100629.00;;;20.90
11849;BMP180;5983;49.966;8.052;2022-07-23T05:07:55;100640.00;;;20.90
11849;BMP180;5983;49.966;8.052;2022-07-23T05:10:22;100645.00;;;20.90
11849;BMP180;5983;49.966;8.052;2022-07-23T05:12:49;100644.00;;;20.90
11849;BMP180;5983;49.966;8.052;2022-07-23T05:15:15;100645.00;;;20.90
11849;BMP180;5983;49.966;8.052;2022-07-23T05:17:42;100643.00;;;21.00
11849;BMP180;5983;49.966;8.052;2022-07-23T05:20:10;100646.00;;;21.00
11849;BMP180;5983;49.966;8.052;2022-07-23T05:22:38;100649.00;;;21.00
11849;BMP180;5983;49.966;8.052;2022-07-23T05:25:06;100652.00;;;21.00
11849;BMP180;5983;49.966;8.052;2022-07-23T05:27:34;100650.00;;;21.10
11849;BMP180;5983;49.966;8.052;2022-07-23T05:30:01;100655.00;;;21.10
11849;BMP180;5983;49.966;8.052;2022-07-23T05:32:28;100651.00;;;21.20
11849;BMP180;5983;49.966;8.052;2022-07-23T05:34:54;100653.00;;;21.30
11849;BMP180;5983;49.966;8.052;2022-07-23T05:37:21;100654.00;;;21.40
11849;BMP180;5983;49.966;8.052;2022-07-23T05:39:49;100662.00;;;21.60
11849;BMP180;5983;49.966;8.052;2022-07-23T05:42:17;100660.00;;;21.70
11849;BMP180;5983;49.966;8.052;2022-07-23T05:44:43;100668.00;;;21.80
11849;BMP180;5983;49.966;8.052;2022-07-23T05:47:10;100664.00;;;21.90
11849;BMP180;5983;49.966;8.052;2022-07-23T05:49:37;100665.00;;;22.00
11849;BMP180;5983;49.966;8.052;2022-07-23T05:52:06;100667.00;;;22.00
11849;BMP180;5983;49.966;8.052;2022-07-23T05:54:34;100671.00;;;22.00
11849;BMP180;5983;49.966;8.052;2022-07-23T05:57:03;100667.00;;;22.10
11849;BMP180;5983;49.966;8.052;2022-07-23T05:59:30;100677.00;;;22.10
11849;BMP180;5983;49.966;8.052;2022-07-23T06:01:57;100670.00;;;22.20
11849;BMP180;5983;49.966;8.052;2022-07-23T06:04:24;100685.00;;;22.20
11849;BMP180;5983;49.966;8.052;2022-07-23T06:06:51;100677.00;;;22.30
11849;BMP180;5983;49.966;8.052;2022-07-23T06:09:19;100673.00;;;22.50
11849;BMP180;5983;49.966;8.052;2022-07-23T06:11:45;100676.00;;;22.60
11849;BMP180;5983;49.966;8.052;2022-07-23T06:14:14;100674.00;;;22.70
11849;BMP180;5983;49.966;8.052;2022-07-23T06:16:40;100675.00;;;22.80
11849;BMP180;5983;49.966;8.052;2022-07-23T06:19:07;100675.00;;;22.90
11849;BMP180;5983;49.966;8.052;2022-07-23T06:21:34;100675.00;;;23.00
11849;BMP180;5983;49.966;8.052;2022-07-23T06:24:01;100672.00;;;23.20
11849;BMP180;5983;49.966;8.052;2022-07-23T06:26:28;100676.00;;;23.30
11849;BMP180;5983;49.966;8.052;2022-07-23T06:28:55;100679.00;;;23.30
11849;BMP180;5983;49.966;8.052;2022-07-23T06:31:23;100684.00;;;23.50
11849;BMP180;5983;49.966;8.052;2022-07-23T06:33:50;100681.00;;;23.40
11849;BMP180;5983;49.966;8.052;2022-07-23T06:36:17;100692.00;;;23.60
11849;BMP180;5983;49.966;8.052;2022-07-23T06:38:44;100687.00;;;23.80
11849;BMP180;5983;49.966;8.052;2022-07-23T06:41:11;100682.00;;;23.90
11849;BMP180;5983;49.966;8.052;2022-07-23T06:43:38;100680.00;;;23.90
11849;BMP180;5983;49.966;8.052;2022-07-23T06:46:05;100672.00;;;24.00
11849;BMP180;5983;49.966;8.052;2022-07-23T06:48:33;100678.00;;;24.10
11849;BMP180;5983;49.966;8.052;2022-07-23T06:51:01;100692.00;;;24.20
11849;BMP180;5983;49.966;8.052;2022-07-23T06:53:28;100693.00;;;24.30
11849;BMP180;5983;49.966;8.052;2022-07-23T06:55:55;100705.00;;;24.40
11849;BMP180;5983;49.966;8.052;2022-07-23T06:58:22;100696.00;;;24.40
11849;BMP180;5983;49.966;8.052;2022-07-23T07:00:52;100704.00;;;24.50
11849;BMP180;5983;49.966;8.052;2022-07-23T07:03:19;100707.00;;;24.60
11849;BMP180;5983;49.966;8.052;2022-07-23T07:05:47;100702.00;;;24.60
11849;BMP180;5983;49.966;8.052;2022-07-23T07:08:15;100707.00;;;24.70
11849;BMP180;5983;49.966;8.052;2022-07-23T07:10:42;100706.00;;;24.80
11849;BMP180;5983;49.966;8.052;2022-07-23T07:13:10;100704.00;;;25.00
11849;BMP180;5983;49.966;8.052;2022-07-23T07:15:37;100714.00;;;25.10
11849;BMP180;5983;49.966;8.052;2022-07-23T07:18:04;100717.00;;;25.10
11849;BMP180;5983;49.966;8.052;2022-07-23T07:20:30;100725.00;;;25.20
11849;BMP180;5983;49.966;8.052;2022-07-23T07:22:59;100723.00;;;25.20
11849;BMP180;5983;49.966;8.052;2022-07-23T07:25:26;100723.00;;;25.30
11849;BMP180;5983;49.966;8.052;2022-07-23T07:27:53;100723.00;;;25.40
11849;BMP180;5983;49.966;8.052;2022-07-23T07:30:20;100729.00;;;25.50
11849;BMP180;5983;49.966;8.052;2022-07-23T07:32:47;100732.00;;;25.60
11849;BMP180;5983;49.966;8.052;2022-07-23T07:35:14;100740.00;;;25.70
11849;BMP180;5983;49.966;8.052;2022-07-23T07:37:41;100740.00;;;25.80
11849;BMP180;5983;49.966;8.052;2022-07-23T07:40:10;100740.00;;;25.80
11849;BMP180;5983;49.966;8.052;2022-07-23T07:42:45;100751.00;;;25.80
11849;BMP180;5983;49.966;8.052;2022-07-23T07:45:12;100747.00;;;26.00
11849;BMP180;5983;49.966;8.052;2022-07-23T07:47:39;100760.00;;;26.10
11849;BMP180;5983;49.966;8.052;2022-07-23T07:50:06;100751.00;;;26.30
11849;BMP180;5983;49.966;8.052;2022-07-23T07:52:34;100755.00;;;26.40
11849;BMP180;5983;49.966;8.052;2022-07-23T07:55:05;100753.00;;;26.60
11849;BMP180;5983;49.966;8.052;2022-07-23T07:57:35;100758.00;;;26.70
11849;BMP180;5983;49.966;8.052;2022-07-23T08:00:04;100765.00;;;26.90
11849;BMP180;5983;49.966;8.052;2022-07-23T08:02:43;100748.00;;;26.90
11849;BMP180;5983;49.966;8.052;2022-07-23T08:05:11;100761.00;;;27.00
11849;BMP180;5983;49.966;8.052;2022-07-23T08:07:39;100768.00;;;27.10
11849;BMP180;5983;49.966;8.052;2022-07-23T08:10:08;100764.00;;;27.10
11849;BMP180;5983;49.966;8.052;2022-07-23T08:12:41;100765.00;;;27.20
11849;BMP180;5983;49.966;8.052;2022-07-23T08:15:11;100770.00;;;27.10
11849;BMP180;5983;49.966;8.052;2022-07-23T08:17:38;100760.00;;;27.30
11849;BMP180;5983;49.966;8.052;2022-07-23T08:20:07;100764.00;;;27.30
11849;BMP180;5983;49.966;8.052;2022-07-23T08:22:47;100758.00;;;27.50
11849;BMP180;5983;49.966;8.052;2022-07-23T08:25:15;100763.00;;;27.60
11849;BMP180;5983;49.966;8.052;2022-07-23T08:27:43;100764.00;;;27.70
11849;BMP180;5983;49.966;8.052;2022-07-23T08:30:11;100768.00;;;27.70
11849;BMP180;5983;49.966;8.052;2022-07-23T08:32:54;100769.00;;;27.70
11849;BMP180;5983;49.966;8.052;2022-07-23T08:35:27;100759.00;;;27.90
11849;BMP180;5983;49.966;8.052;2022-07-23T08:37:55;100770.00;;;28.00
11849;BMP180;5983;49.966;8.052;2022-07-23T08:40:25;100765.00;;;28.20
11849;BMP180;5983;49.966;8.052;2022-07-23T08:42:54;100771.00;;;28.40
11849;BMP180;5983;49.966;8.052;2022-07-23T08:45:23;100772.00;;;28.40
11849;BMP180;5983;49.966;8.052;2022-07-23T08:47:52;100773.00;;;28.50
11849;BMP180;5983;49.966;8.052;2022-07-23T08:50:20;100776.00;;;28.40
11849;BMP180;5983;49.966;8.052;2022-07-23T08:52:48;100773.00;;;28.30
11849;BMP180;5983;49.966;8.052;2022-07-23T08:55:17;100774.00;;;28.40
11849;BMP180;5983;49.966;8.052;2022-07-23T08:57:44;100766.00;;;28.40
11849;BMP180;5983;49.966;8.052;2022-07-23T09:00:15;100773.00;;;28.50
11849;BMP180;5983;49.966;8.052;2022-07-23T09:02:44;100764.00;;;28.60
11849;BMP180;5983;49.966;8.052;2022-07-23T09:05:13;100768.00;;;28.90
11849;BMP180;5983;49.966;8.052;2022-07-23T09:08:09;100767.00;;;28.90
11849;BMP180;5983;49.966;8.052;2022-07-23T09:10:49;100765.00;;;29.00
11849;BMP180;5983;49.966;8.052;2022-07-23T09:13:35;100767.00;;;28.80
11849;BMP180;5983;49.966;8.052;2022-07-23T09:16:07;100770.00;;;29.10
11849;BMP180;5983;49.966;8.052;2022-07-23T09:18:40;100768.00;;;29.10
11849;BMP180;5983;49.966;8.052;2022-07-23T09:21:21;100763.00;;;29.30
11849;BMP180;5983;49.966;8.052;2022-07-23T09:23:56;100764.00;;;29.50
11849;BMP180;5983;49.966;8.052;2022-07-23T09:26:34;100764.00;;;29.80
11849;BMP180;5983;49.966;8.052;2022-07-23T09:29:10;100770.00;;;29.90
11849;BMP180;5983;49.966;8.052;2022-07-23T09:31:50;100779.00;;;30.10
11849;BMP180;5983;49.966;8.052;2022-07-23T09:34:24;100774.00;;;30.20
11849;BMP180;5983;49.966;8.052;2022-07-23T09:36:54;100774.00;;;30.10
11849;BMP180;5983;49.966;8.052;2022-07-23T09:39:27;100776.00;;;30.20
11849;BMP180;5983;49.966;8.052;2022-07-23T09:41:55;100770.00;;;30.30
11849;BMP180;5983;49.966;8.052;2022-07-23T09:44:22;100778.00;;;30.50
11849;BMP180;5983;49.966;8.052;2022-07-23T09:46:58;100780.00;;;30.70
11849;BMP180;5983;49.966;8.052;2022-07-23T09:49:26;100773.00;;;30.80
11849;BMP180;5983;49.966;8.052;2022-07-23T09:51:56;100772.00;;;30.80
11849;BMP180;5983;49.966;8.052;2022-07-23T09:54:30;100776.00;;;30.90
11849;BMP180;5983;49.966;8.052;2022-07-23T09:57:05;100770.00;;;31.00
11849;BMP180;5983;49.966;8.052;2022-07-23T09:59:36;100779.00;;;31.10
11849;BMP180;5983;49.966;8.052;2022-07-23T10:02:07;100771.00;;;31.30
11849;BMP180;5983;49.966;8.052;2022-07-23T10:04:35;100780.00;;;31.20
11849;BMP180;5983;49.966;8.052;2022-07-23T10:07:04;100777.00;;;31.00
11849;BMP180;5983;49.966;8.052;2022-07-23T10:09:35;100772.00;;;30.40
11849;BMP180;5983;49.966;8.052;2022-07-23T10:12:09;100776.00;;;30.30
11849;BMP180;5983;49.966;8.052;2022-07-23T10:14:53;100779.00;;;30.30
11849;BMP180;5983;49.966;8.052;2022-07-23T10:17:22;100775.00;;;30.30
11849;BMP180;5983;49.966;8.052;2022-07-23T10:19:49;100771.00;;;30.60
11849;BMP180;5983;49.966;8.052;2022-07-23T10:22:22;100779.00;;;31.00
11849;BMP180;5983;49.966;8.052;2022-07-23T10:24:59;100779.00;;;31.20
11849;BMP180;5983;49.966;8.052;2022-07-23T10:28:08;100776.00;;;31.10
11849;BMP180;5983;49.966;8.052;2022-07-23T10:30:50;100772.00;;;31.10
11849;BMP180;5983;49.966;8.052;2022-07-23T10:33:32;100779.00;;;31.00
11849;BMP180;5983;49.966;8.052;2022-07-23T10:36:13;100773.00;;;30.90
11849;BMP180;5983;49.966;8.052;2022-07-23T10:38:54;100770.00;;;30.80
11849;BMP180;5983;49.966;8.052;2022-07-23T10:41:37;100772.00;;;31.00
11849;BMP180;5983;49.966;8.052;2022-07-23T10:44:14;100770.00;;;31.30
11849;BMP180;5983;49.966;8.052;2022-07-23T10:46:59;100762.00;;;31.50
11849;BMP180;5983;49.966;8.052;2022-07-23T10:49:45;100767.00;;;31.20
11849;BMP180;5983;49.966;8.052;2022-07-23T10:52:25;100770.00;;;30.90
11849;BMP180;5983;49.966;8.052;2022-07-23T10:54:56;100771.00;;;30.60
11849;BMP180;5983;49.966;8.052;2022-07-23T10:57:26;100766.00;;;30.50
11849;BMP180;5983;49.966;8.052;2022-07-23T11:00:19;100764.00;;;30.50
11849;BMP180;5983;49.966;8.052;2022-07-23T11:02:49;100755.00;;;30.80
11849;BMP180;5983;49.966;8.052;2022-07-23T11:05:20;100759.00;;;31.00
11849;BMP180;5983;49.966;8.052;2022-07-23T11:08:23;100762.00;;;31.30
11849;BMP180;5983;49.966;8.052;2022-07-23T11:10:54;100754.00;;;31.60
11849;BMP180;5983;49.966;8.052;2022-07-23T11:13:53;100754.00;;;31.70
11849;BMP180;5983;49.966;8.052;2022-07-23T11:16:24;100753.00;;;31.50
11849;BMP180;5983;49.966;8.052;2022-07-23T11:19:06;100750.00;;;31.80
11849;BMP180;5983;49.966;8.052;2022-07-23T11:21:51;100754.00;;;31.80
11849;BMP180;5983;49.966;8.052;2022-07-23T11:24:21;100742.00;;;32.10
11849;BMP180;5983;49.966;8.052;2022-07-23T11:27:01;100742.00;;;32.20
11849;BMP180;5983;49.966;8.052;2022-07-23T11:29:48;100744.00;;;32.20
11849;BMP180;5983;49.966;8.052;2022-07-23T11:32:30;100734.00;;;32.10
11849;BMP180;5983;49.966;8.052;2022-07-23T11:34:59;100733.00;;;32.20
11849;BMP180;5983;49.966;8.052;2022-07-23T11:37:36;100737.00;;;32.40
11849;BMP180;5983;49.966;8.052;2022-07-23T11:40:08;100728.00;;;32.60
11849;BMP180;5983;49.966;8.052;2022-07-23T11:42:38;100741.00;;;32.60
11849;BMP180;5983;49.966;8.052;2022-07-23T11:45:08;100744.00;;;32.60
11849;BMP180;5983;49.966;8.052;2022-07-23T11:47:35;100742.00;;;32.70
11849;BMP180;5983;49.966;8.052;2022-07-23T11:50:05;100740.00;;;32.90
11849;BMP180;5983;49.966;8.052;2022-07-23T11:52:34;100737.00;;;33.10
11849;BMP180;5983;49.966;8.052;2022-07-23T11:55:04;100739.00;;;33.30
11849;BMP180;5983;49.966;8.052;2022-07-23T11:57:35;100736.00;;;33.30
11849;BMP180;5983;49.966;8.052;2022-07-23T12:00:07;100739.00;;;33.40
11849;BMP180;5983;49.966;8.052;2022-07-23T12:02:36;100736.00;;;33.20
11849;BMP180;5983;49.966;8.052;2022-07-23T12:05:04;100729.00;;;32.70
11849;BMP180;5983;49.966;8.052;2022-07-23T12:07:35;100733.00;;;32.40
11849;BMP180;5983;49.966;8.052;2022-07-23T12:10:10;100741.00;;;32.40
11849;BMP180;5983;49.966;8.052;2022-07-23T12:12:38;100731.00;;;32.40
11849;BMP180;5983;49.966;8.052;2022-07-23T12:15:07;100735.00;;;32.40
11849;BMP180;5983;49.966;8.052;2022-07-23T12:17:38;100737.00;;;32.60
11849;BMP180;5983;49.966;8.052;2022-07-23T12:20:08;100730.00;;;32.80
11849;BMP180;5983;49.966;8.052;2022-07-23T12:22:39;100736.00;;;32.90
11849;BMP180;5983;49.966;8.052;2022-07-23T12:25:10;100732.00;;;33.00
11849;BMP180;5983;49.966;8.052;2022-07-23T12:27:38;100733.00;;;33.00
11849;BMP180;5983;49.966;8.052;2022-07-23T12:30:24;100732.00;;;33.10
11849;BMP180;5983;49.966;8.052;2022-07-23T12:32:54;100742.00;;;33.10
11849;BMP180;5983;49.966;8.052;2022-07-23T12:35:23;100732.00;;;33.20
11849;BMP180;5983;49.966;8.052;2022-07-23T12:37:52;100727.00;;;33.30
11849;BMP180;5983;49.966;8.052;2022-07-23T12:40:27;100742.00;;;33.40
11849;BMP180;5983;49.966;8.052;2022-07-23T12:42:58;100734.00;;;33.50
11849;BMP180;5983;49.966;8.052;2022-07-23T12:45:27;100732.00;;;33.50
11849;BMP180;5983;49.966;8.052;2022-07-23T12:48:03;100725.00;;;33.40
11849;BMP180;5983;49.966;8.052;2022-07-23T12:50:38;100739.00;;;33.40
11849;BMP180;5983;49.966;8.052;2022-07-23T12:53:10;100733.00;;;33.50
11849;BMP180;5983;49.966;8.052;2022-07-23T12:55:39;100735.00;;;33.40
11849;BMP180;5983;49.966;8.052;2022-07-23T12:58:13;100732.00;;;33.50
11849;BMP180;5983;49.966;8.052;2022-07-23T13:01:00;100742.00;;;33.40
11849;BMP180;5983;49.966;8.052;2022-07-23T13:03:35;100739.00;;;33.30
11849;BMP180;5983;49.966;8.052;2022-07-23T13:06:06;100735.00;;;33.30
11849;BMP180;5983;49.966;8.052;2022-07-23T13:08:38;100744.00;;;33.40
11849;BMP180;5983;49.966;8.052;2022-07-23T13:11:06;100745.00;;;33.50
11849;BMP180;5983;49.966;8.052;2022-07-23T13:13:35;100740.00;;;33.50
11849;BMP180;5983;49.966;8.052;2022-07-23T13:16:03;100740.00;;;33.40
11849;BMP180;5983;49.966;8.052;2022-07-23T13:18:31;100740.00;;;33.30
11849;BMP180;5983;49.966;8.052;2022-07-23T13:20:58;100750.00;;;33.00
11849;BMP180;5983;49.966;8.052;2022-07-23T13:23:26;100743.00;;;32.80
11849;BMP180;5983;49.966;8.052;2022-07-23T13:25:54;100742.00;;;32.50
11849;BMP180;5983;49.966;8.052;2022-07-23T13:28:23;100746.00;;;32.30
11849;BMP180;5983;49.966;8.052;2022-07-23T13:30:51;100739.00;;;32.30
11849;BMP180;5983;49.966;8.052;2022-07-23T13:33:19;100739.00;;;32.20
11849;BMP180;5983;49.966;8.052;2022-07-23T13:35:47;100743.00;;;32.00
11849;BMP180;5983;49.966;8.052;2022-07-23T13:38:17;100734.00;;;31.80
11849;BMP180;5983;49.966;8.052;2022-07-23T13:40:48;100739.00;;;31.60
11849;BMP180;5983;49.966;8.052;2022-07-23T13:43:20;100739.00;;;31.50
11849;BMP180;5983;49.966;8.052;2022-07-23T13:45:49;100726.00;;;31.50
11849;BMP180;5983;49.966;8.052;2022-07-23T13:48:17;100726.00;;;31.70
11849;BMP180;5983;49.966;8.052;2022-07-23T13:50:46;100725.00;;;32.00
11849;BMP180;5983;49.966;8.052;2022-07-23T13:53:16;100727.00;;;32.20
11849;BMP180;5983;49.966;8.052;2022-07-23T13:55:45;100724.00;;;32.30
11849;BMP180;5983;49.966;8.052;2022-07-23T13:58:17;100729.00;;;32.40
11849;BMP180;5983;49.966;8.052;2022-07-23T14:00:47;100728.00;;;32.60
11849;BMP180;5983;49.966;8.052;2022-07-23T14:03:15;100722.00;;;32.60
11849;BMP180;5983;49.966;8.052;2022-07-23T14:05:42;100723.00;;;32.70
11849;BMP180;5983;49.966;8.052;2022-07-23T14:08:10;100726.00;;;32.70
11849;BMP180;5983;49.966;8.052;2022-07-23T14:10:37;100727.00;;;32.60
11849;BMP180;5983;49.966;8.052;2022-07-23T14:13:04;100725.00;;;32.70
11849;BMP180;5983;49.966;8.052;2022-07-23T14:15:33;100711.00;;;32.70
11849;BMP180;5983;49.966;8.052;2022-07-23T14:18:00;100720.00;;;32.70
11849;BMP180;5983;49.966;8.052;2022-07-23T14:20:27;100721.00;;;32.80
11849;BMP180;5983;49.966;8.052;2022-07-23T14:22:54;100718.00;;;32.70